sensor_id;sensor_type;location;lat;lon;timestamp;P1;durP1;ratioP1;P2;durP2;ratioP2
34573;SDS011;20809;49.594;8.734;2023-02-11T00:02:53;60.60;;;29.08;;
34573;SDS011;20809;49.594;8.734;2023-02-11T00:06:01;52.50;;;26.75;;
34573;SDS011;20809;49.594;8.734;2023-02-11T00:09:04;58.95;;;28.63;;
34573;SDS011;20809;49.594;8.734;2023-02-11T00:12:05;64.82;;;32.35;;
34573;SDS011;20809;49.594;8.734;2023-02-11T00:15:06;58.38;;;27.83;;
34573;SDS011;20809;49.594;8.734;2023-02-11T00:21:08;60.87;;;28.60;;
34573;SDS011;20809;49.594;8.734;2023-02-11T00:24:14;55.60;;;27.75;;
34573;SDS011;20809;49.594;8.734;2023-02-11T00:27:15;55.75;;;28.10;;
34573;SDS011;20809;49.594;8.734;2023-02-11T00:30:15;58.85;;;27.13;;
34573;SDS011;20809;49.594;8.734;2023-02-11T00:33:16;58.97;;;27.02;;
34573;SDS011;20809;49.594;8.734;2023-02-11T00:36:21;65.80;;;31.70;;
34573;SDS011;20809;49.594;8.734;2023-02-11T00:39:24;58.97;;;29.80;;
34573;SDS011;20809;49.594;8.734;2023-02-11T00:42:25;63.30;;;29.67;;
34573;SDS011;20809;49.594;8.734;2023-02-11T00:45:26;59.67;;;29.48;;
34573;SDS011;20809;49.594;8.734;2023-02-11T00:48:27;64.00;;;29.02;;
34573;SDS011;20809;49.594;8.734;2023-02-11T00:51:28;52.60;;;26.23;;
34573;SDS011;20809;49.594;8.734;2023-02-11T00:54:29;52.75;;;27.83;;
34573;SDS011;20809;49.594;8.734;2023-02-11T00:57:29;53.75;;;26.27;;
34573;SDS011;20809;49.594;8.734;2023-02-11T01:00:30;38.75;;;21.15;;
34573;SDS011;20809;49.594;8.734;2023-02-11T01:03:31;40.00;;;21.10;;
34573;SDS011;20809;49.594;8.734;2023-02-11T01:06:32;46.72;;;25.73;;
34573;SDS011;20809;49.594;8.734;2023-02-11T01:09:33;46.85;;;23.58;;
34573;SDS011;20809;49.594;8.734;2023-02-11T01:12:33;49.83;;;25.25;;
34573;SDS011;20809;49.594;8.734;2023-02-11T01:15:34;45.45;;;24.90;;
34573;SDS011;20809;49.594;8.734;2023-02-11T01:21:36;54.03;;;24.80;;
34573;SDS011;20809;49.594;8.734;2023-02-11T01:24:37;53.15;;;25.38;;
34573;SDS011;20809;49.594;8.734;2023-02-11T01:27:38;48.40;;;23.40;;
34573;SDS011;20809;49.594;8.734;2023-02-11T01:30:39;54.63;;;27.33;;
34573;SDS011;20809;49.594;8.734;2023-02-11T01:33:39;43.58;;;23.92;;
34573;SDS011;20809;49.594;8.734;2023-02-11T01:36:40;53.70;;;26.05;;
34573;SDS011;20809;49.594;8.734;2023-02-11T01:39:41;60.22;;;28.15;;
34573;SDS011;20809;49.594;8.734;2023-02-11T01:42:42;56.15;;;27.98;;
34573;SDS011;20809;49.594;8.734;2023-02-11T01:48:50;54.53;;;27.10;;
34573;SDS011;20809;49.594;8.734;2023-02-11T01:54:59;57.20;;;26.83;;
34573;SDS011;20809;49.594;8.734;2023-02-11T01:59:19;51.13;;;26.20;;
34573;SDS011;20809;49.594;8.734;2023-02-11T02:05:57;46.90;;;24.05;;
34573;SDS011;20809;49.594;8.734;2023-02-11T02:09:18;50.10;;;25.50;;
34573;SDS011;20809;49.594;8.734;2023-02-11T02:12:23;48.53;;;26.75;;
34573;SDS011;20809;49.594;8.734;2023-02-11T02:22:26;49.67;;;25.33;;
34573;SDS011;20809;49.594;8.734;2023-02-11T02:25:49;54.83;;;28.42;;
34573;SDS011;20809;49.594;8.734;2023-02-11T02:32:50;52.83;;;28.38;;
34573;SDS011;20809;49.594;8.734;2023-02-11T02:39:27;39.40;;;21.60;;
34573;SDS011;20809;49.594;8.734;2023-02-11T02:42:33;39.75;;;21.88;;
34573;SDS011;20809;49.594;8.734;2023-02-11T02:45:35;46.85;;;23.52;;
34573;SDS011;20809;49.594;8.734;2023-02-11T02:48:36;36.72;;;21.23;;
34573;SDS011;20809;49.594;8.734;2023-02-11T02:51:43;37.55;;;19.92;;
34573;SDS011;20809;49.594;8.734;2023-02-11T02:56:05;40.45;;;19.45;;
34573;SDS011;20809;49.594;8.734;2023-02-11T03:02:03;32.83;;;18.35;;
34573;SDS011;20809;49.594;8.734;2023-02-11T03:08:16;48.00;;;25.90;;
34573;SDS011;20809;49.594;8.734;2023-02-11T03:11:18;41.78;;;22.08;;
34573;SDS011;20809;49.594;8.734;2023-02-11T03:14:21;44.45;;;24.42;;
34573;SDS011;20809;49.594;8.734;2023-02-11T03:17:27;42.53;;;22.05;;
34573;SDS011;20809;49.594;8.734;2023-02-11T03:20:32;42.35;;;22.20;;
34573;SDS011;20809;49.594;8.734;2023-02-11T03:23:43;43.80;;;22.42;;
34573;SDS011;20809;49.594;8.734;2023-02-11T03:26:51;38.65;;;20.73;;
34573;SDS011;20809;49.594;8.734;2023-02-11T03:30:00;41.10;;;20.98;;
34573;SDS011;20809;49.594;8.734;2023-02-11T03:33:29;32.97;;;17.15;;
34573;SDS011;20809;49.594;8.734;2023-02-11T03:36:51;36.30;;;19.17;;
34573;SDS011;20809;49.594;8.734;2023-02-11T03:40:04;33.97;;;18.55;;
34573;SDS011;20809;49.594;8.734;2023-02-11T03:43:13;29.08;;;17.13;;
34573;SDS011;20809;49.594;8.734;2023-02-11T03:46:21;31.75;;;16.75;;
34573;SDS011;20809;49.594;8.734;2023-02-11T03:49:27;33.28;;;17.48;;
34573;SDS011;20809;49.594;8.734;2023-02-11T03:52:29;26.23;;;15.18;;
34573;SDS011;20809;49.594;8.734;2023-02-11T03:55:32;28.83;;;17.80;;
34573;SDS011;20809;49.594;8.734;2023-02-11T03:58:37;30.60;;;16.77;;
34573;SDS011;20809;49.594;8.734;2023-02-11T04:01:39;35.83;;;20.88;;
34573;SDS011;20809;49.594;8.734;2023-02-11T04:04:42;36.35;;;20.50;;
34573;SDS011;20809;49.594;8.734;2023-02-11T04:07:43;35.70;;;19.45;;
34573;SDS011;20809;49.594;8.734;2023-02-11T04:10:45;36.22;;;18.58;;
34573;SDS011;20809;49.594;8.734;2023-02-11T04:16:49;29.95;;;17.10;;
34573;SDS011;20809;49.594;8.734;2023-02-11T04:19:52;32.00;;;16.95;;
34573;SDS011;20809;49.594;8.734;2023-02-11T04:22:54;29.20;;;15.07;;
34573;SDS011;20809;49.594;8.734;2023-02-11T04:25:55;28.27;;;15.60;;
34573;SDS011;20809;49.594;8.734;2023-02-11T04:28:56;31.95;;;17.33;;
34573;SDS011;20809;49.594;8.734;2023-02-11T04:31:58;31.45;;;17.38;;
34573;SDS011;20809;49.594;8.734;2023-02-11T04:38:02;28.70;;;15.65;;
34573;SDS011;20809;49.594;8.734;2023-02-11T04:41:06;28.65;;;16.50;;
34573;SDS011;20809;49.594;8.734;2023-02-11T04:44:08;32.20;;;16.83;;
34573;SDS011;20809;49.594;8.734;2023-02-11T04:47:10;34.05;;;17.77;;
34573;SDS011;20809;49.594;8.734;2023-02-11T04:50:16;30.40;;;17.00;;
34573;SDS011;20809;49.594;8.734;2023-02-11T04:53:18;33.42;;;16.92;;
34573;SDS011;20809;49.594;8.734;2023-02-11T04:56:19;37.67;;;17.00;;
34573;SDS011;20809;49.594;8.734;2023-02-11T04:59:20;33.05;;;17.45;;
34573;SDS011;20809;49.594;8.734;2023-02-11T05:02:22;35.10;;;17.80;;
34573;SDS011;20809;49.594;8.734;2023-02-11T05:05:23;36.20;;;18.10;;
34573;SDS011;20809;49.594;8.734;2023-02-11T05:08:24;34.30;;;18.13;;
34573;SDS011;20809;49.594;8.734;2023-02-11T05:14:29;31.98;;;15.70;;
34573;SDS011;20809;49.594;8.734;2023-02-11T05:17:30;32.17;;;16.40;;
34573;SDS011;20809;49.594;8.734;2023-02-11T05:20:31;33.33;;;16.48;;
34573;SDS011;20809;49.594;8.734;2023-02-11T05:23:32;29.75;;;16.63;;
34573;SDS011;20809;49.594;8.734;2023-02-11T05:26:37;30.70;;;16.45;;
34573;SDS011;20809;49.594;8.734;2023-02-11T05:29:42;26.85;;;15.60;;
34573;SDS011;20809;49.594;8.734;2023-02-11T05:32:44;31.98;;;16.70;;
34573;SDS011;20809;49.594;8.734;2023-02-11T05:35:47;30.95;;;17.15;;
34573;SDS011;20809;49.594;8.734;2023-02-11T05:38:49;30.67;;;16.33;;
34573;SDS011;20809;49.594;8.734;2023-02-11T05:41:51;28.77;;;16.25;;
34573;SDS011;20809;49.594;8.734;2023-02-11T05:44:56;31.30;;;16.85;;
34573;SDS011;20809;49.594;8.734;2023-02-11T05:47:57;34.22;;;18.45;;
34573;SDS011;20809;49.594;8.734;2023-02-11T05:50:58;28.95;;;16.33;;
34573;SDS011;20809;49.594;8.734;2023-02-11T05:54:00;71.55;;;31.90;;
34573;SDS011;20809;49.594;8.734;2023-02-11T05:57:01;64.95;;;33.35;;
34573;SDS011;20809;49.594;8.734;2023-02-11T06:00:03;62.42;;;30.35;;
34573;SDS011;20809;49.594;8.734;2023-02-11T06:03:05;56.92;;;28.77;;
34573;SDS011;20809;49.594;8.734;2023-02-11T06:06:09;52.60;;;25.90;;
34573;SDS011;20809;49.594;8.734;2023-02-11T06:09:11;47.38;;;22.92;;
34573;SDS011;20809;49.594;8.734;2023-02-11T06:12:14;43.75;;;22.50;;
34573;SDS011;20809;49.594;8.734;2023-02-11T06:15:17;44.00;;;22.33;;
34573;SDS011;20809;49.594;8.734;2023-02-11T06:18:19;42.92;;;22.77;;
34573;SDS011;20809;49.594;8.734;2023-02-11T06:21:21;45.10;;;22.27;;
34573;SDS011;20809;49.594;8.734;2023-02-11T06:24:23;45.00;;;22.08;;
34573;SDS011;20809;49.594;8.734;2023-02-11T06:27:25;38.03;;;20.80;;
34573;SDS011;20809;49.594;8.734;2023-02-11T06:30:28;38.63;;;19.33;;
34573;SDS011;20809;49.594;8.734;2023-02-11T06:33:32;41.63;;;19.30;;
34573;SDS011;20809;49.594;8.734;2023-02-11T06:36:40;56.25;;;26.40;;
34573;SDS011;20809;49.594;8.734;2023-02-11T06:39:47;50.13;;;25.27;;
34573;SDS011;20809;49.594;8.734;2023-02-11T06:42:52;39.38;;;21.77;;
34573;SDS011;20809;49.594;8.734;2023-02-11T06:45:58;43.22;;;22.67;;
34573;SDS011;20809;49.594;8.734;2023-02-11T06:49:02;40.50;;;20.35;;
34573;SDS011;20809;49.594;8.734;2023-02-11T06:52:08;38.33;;;20.70;;
34573;SDS011;20809;49.594;8.734;2023-02-11T06:55:10;34.47;;;18.58;;
34573;SDS011;20809;49.594;8.734;2023-02-11T06:58:14;34.65;;;18.08;;
34573;SDS011;20809;49.594;8.734;2023-02-11T07:01:20;31.05;;;18.45;;
34573;SDS011;20809;49.594;8.734;2023-02-11T07:04:27;34.83;;;18.50;;
34573;SDS011;20809;49.594;8.734;2023-02-11T07:07:33;35.33;;;20.13;;
34573;SDS011;20809;49.594;8.734;2023-02-11T07:10:37;36.35;;;19.00;;
34573;SDS011;20809;49.594;8.734;2023-02-11T07:13:45;35.08;;;19.65;;
34573;SDS011;20809;49.594;8.734;2023-02-11T07:16:53;37.35;;;19.38;;
34573;SDS011;20809;49.594;8.734;2023-02-11T07:19:57;36.85;;;19.65;;
34573;SDS011;20809;49.594;8.734;2023-02-11T07:23:04;35.05;;;18.95;;
34573;SDS011;20809;49.594;8.734;2023-02-11T07:26:07;35.75;;;18.48;;
34573;SDS011;20809;49.594;8.734;2023-02-11T07:29:13;32.00;;;17.83;;
34573;SDS011;20809;49.594;8.734;2023-02-11T07:32:17;35.75;;;19.35;;
34573;SDS011;20809;49.594;8.734;2023-02-11T07:35:20;32.70;;;17.00;;
34573;SDS011;20809;49.594;8.734;2023-02-11T07:38:23;32.25;;;16.95;;
34573;SDS011;20809;49.594;8.734;2023-02-11T07:41:29;33.00;;;17.90;;
34573;SDS011;20809;49.594;8.734;2023-02-11T07:44:35;27.48;;;15.88;;
34573;SDS011;20809;49.594;8.734;2023-02-11T07:47:38;30.70;;;16.40;;
34573;SDS011;20809;49.594;8.734;2023-02-11T07:50:42;27.30;;;16.10;;
34573;SDS011;20809;49.594;8.734;2023-02-11T07:53:44;26.77;;;14.35;;
34573;SDS011;20809;49.594;8.734;2023-02-11T07:56:49;29.30;;;16.13;;
34573;SDS011;20809;49.594;8.734;2023-02-11T07:59:53;22.73;;;13.82;;
34573;SDS011;20809;49.594;8.734;2023-02-11T08:02:57;28.75;;;15.15;;
34573;SDS011;20809;49.594;8.734;2023-02-11T08:06:06;25.95;;;16.30;;
34573;SDS011;20809;49.594;8.734;2023-02-11T08:09:18;25.90;;;13.43;;
34573;SDS011;20809;49.594;8.734;2023-02-11T08:12:22;28.60;;;13.93;;
34573;SDS011;20809;49.594;8.734;2023-02-11T08:15:28;20.13;;;12.10;;
34573;SDS011;20809;49.594;8.734;2023-02-11T08:18:31;22.67;;;14.00;;
34573;SDS011;20809;49.594;8.734;2023-02-11T08:21:39;19.98;;;12.77;;
34573;SDS011;20809;49.594;8.734;2023-02-11T08:24:42;21.65;;;11.98;;
34573;SDS011;20809;49.594;8.734;2023-02-11T08:27:50;20.08;;;12.77;;
34573;SDS011;20809;49.594;8.734;2023-02-11T08:30:53;21.42;;;13.52;;
34573;SDS011;20809;49.594;8.734;2023-02-11T08:33:57;21.30;;;14.32;;
34573;SDS011;20809;49.594;8.734;2023-02-11T08:37:02;24.80;;;13.10;;
34573;SDS011;20809;49.594;8.734;2023-02-11T08:40:04;22.08;;;13.27;;
34573;SDS011;20809;49.594;8.734;2023-02-11T08:43:05;21.77;;;13.68;;
34573;SDS011;20809;49.594;8.734;2023-02-11T08:46:09;18.90;;;12.63;;
34573;SDS011;20809;49.594;8.734;2023-02-11T08:49:18;20.98;;;12.55;;
34573;SDS011;20809;49.594;8.734;2023-02-11T08:52:22;20.58;;;12.45;;
34573;SDS011;20809;49.594;8.734;2023-02-11T08:55:26;18.23;;;11.52;;
34573;SDS011;20809;49.594;8.734;2023-02-11T08:58:29;18.83;;;12.65;;
34573;SDS011;20809;49.594;8.734;2023-02-11T09:01:35;21.80;;;12.85;;
34573;SDS011;20809;49.594;8.734;2023-02-11T09:04:42;23.60;;;13.23;;
34573;SDS011;20809;49.594;8.734;2023-02-11T09:07:45;21.50;;;13.10;;
34573;SDS011;20809;49.594;8.734;2023-02-11T09:10:50;23.50;;;13.43;;
34573;SDS011;20809;49.594;8.734;2023-02-11T09:13:51;19.05;;;11.68;;
34573;SDS011;20809;49.594;8.734;2023-02-11T09:16:54;23.10;;;14.23;;
34573;SDS011;20809;49.594;8.734;2023-02-11T09:19:56;32.28;;;18.13;;
34573;SDS011;20809;49.594;8.734;2023-02-11T09:23:00;22.52;;;12.25;;
34573;SDS011;20809;49.594;8.734;2023-02-11T09:26:06;22.02;;;11.80;;
34573;SDS011;20809;49.594;8.734;2023-02-11T09:29:08;22.08;;;13.15;;
34573;SDS011;20809;49.594;8.734;2023-02-11T09:32:14;19.27;;;12.65;;
34573;SDS011;20809;49.594;8.734;2023-02-11T09:35:18;22.13;;;13.32;;
34573;SDS011;20809;49.594;8.734;2023-02-11T09:38:21;19.58;;;11.93;;
34573;SDS011;20809;49.594;8.734;2023-02-11T09:44:53;23.02;;;12.75;;
34573;SDS011;20809;49.594;8.734;2023-02-11T09:48:02;25.15;;;13.52;;
34573;SDS011;20809;49.594;8.734;2023-02-11T09:54:53;23.77;;;14.52;;
34573;SDS011;20809;49.594;8.734;2023-02-11T09:58:03;27.42;;;16.67;;
34573;SDS011;20809;49.594;8.734;2023-02-11T10:01:36;24.73;;;14.27;;
34573;SDS011;20809;49.594;8.734;2023-02-11T10:08:51;20.88;;;13.65;;
34573;SDS011;20809;49.594;8.734;2023-02-11T10:12:18;22.33;;;14.30;;
34573;SDS011;20809;49.594;8.734;2023-02-11T10:22:40;25.80;;;15.35;;
34573;SDS011;20809;49.594;8.734;2023-02-11T10:25:50;24.45;;;16.42;;
34573;SDS011;20809;49.594;8.734;2023-02-11T10:28:54;26.17;;;16.30;;
34573;SDS011;20809;49.594;8.734;2023-02-11T10:32:03;20.48;;;14.13;;
34573;SDS011;20809;49.594;8.734;2023-02-11T10:35:18;23.92;;;15.60;;
34573;SDS011;20809;49.594;8.734;2023-02-11T10:38:24;24.77;;;16.60;;
34573;SDS011;20809;49.594;8.734;2023-02-11T10:41:31;25.00;;;14.30;;
34573;SDS011;20809;49.594;8.734;2023-02-11T10:48:53;24.58;;;16.38;;
34573;SDS011;20809;49.594;8.734;2023-02-11T10:51:39;31.20;;;16.67;;
34573;SDS011;20809;49.594;8.734;2023-02-11T10:55:00;25.52;;;16.08;;
34573;SDS011;20809;49.594;8.734;2023-02-11T10:58:18;27.17;;;16.02;;
34573;SDS011;20809;49.594;8.734;2023-02-11T11:01:39;29.75;;;16.80;;
34573;SDS011;20809;49.594;8.734;2023-02-11T11:04:57;28.25;;;17.02;;
34573;SDS011;20809;49.594;8.734;2023-02-11T11:08:07;26.55;;;16.80;;
34573;SDS011;20809;49.594;8.734;2023-02-11T11:11:14;25.02;;;16.60;;
34573;SDS011;20809;49.594;8.734;2023-02-11T11:14:19;24.33;;;16.35;;
34573;SDS011;20809;49.594;8.734;2023-02-11T11:17:29;29.00;;;17.27;;
34573;SDS011;20809;49.594;8.734;2023-02-11T11:20:32;30.25;;;18.15;;
34573;SDS011;20809;49.594;8.734;2023-02-11T11:23:36;29.27;;;18.00;;
34573;SDS011;20809;49.594;8.734;2023-02-11T11:26:41;23.55;;;15.38;;
34573;SDS011;20809;49.594;8.734;2023-02-11T11:29:45;28.42;;;17.15;;
34573;SDS011;20809;49.594;8.734;2023-02-11T11:32:56;27.73;;;18.38;;
34573;SDS011;20809;49.594;8.734;2023-02-11T11:36:04;26.00;;;17.73;;
34573;SDS011;20809;49.594;8.734;2023-02-11T11:39:27;32.67;;;18.23;;
34573;SDS011;20809;49.594;8.734;2023-02-11T11:42:31;34.75;;;22.98;;
34573;SDS011;20809;49.594;8.734;2023-02-11T11:45:34;37.03;;;19.45;;
34573;SDS011;20809;49.594;8.734;2023-02-11T11:48:41;34.45;;;17.67;;
34573;SDS011;20809;49.594;8.734;2023-02-11T11:51:50;35.57;;;17.70;;
34573;SDS011;20809;49.594;8.734;2023-02-11T11:58:22;30.08;;;19.90;;
34573;SDS011;20809;49.594;8.734;2023-02-11T12:04:47;33.10;;;18.48;;
34573;SDS011;20809;49.594;8.734;2023-02-11T12:08:01;42.35;;;17.58;;
34573;SDS011;20809;49.594;8.734;2023-02-11T12:17:56;32.85;;;17.73;;
34573;SDS011;20809;49.594;8.734;2023-02-11T12:21:37;27.10;;;16.80;;
34573;SDS011;20809;49.594;8.734;2023-02-11T12:28:40;27.98;;;16.63;;
34573;SDS011;20809;49.594;8.734;2023-02-11T12:35:27;26.58;;;17.83;;
34573;SDS011;20809;49.594;8.734;2023-02-11T12:42:46;27.02;;;16.73;;
34573;SDS011;20809;49.594;8.734;2023-02-11T12:49:23;24.98;;;15.25;;
34573;SDS011;20809;49.594;8.734;2023-02-11T12:55:59;27.88;;;16.20;;
34573;SDS011;20809;49.594;8.734;2023-02-11T13:06:08;24.07;;;14.93;;
34573;SDS011;20809;49.594;8.734;2023-02-11T13:09:25;27.17;;;16.38;;
34573;SDS011;20809;49.594;8.734;2023-02-11T13:12:42;26.65;;;16.67;;
34573;SDS011;20809;49.594;8.734;2023-02-11T13:16:18;25.75;;;15.80;;
34573;SDS011;20809;49.594;8.734;2023-02-11T13:19:54;30.13;;;18.25;;
34573;SDS011;20809;49.594;8.734;2023-02-11T13:33:39;26.23;;;16.23;;
34573;SDS011;20809;49.594;8.734;2023-02-11T13:36:50;26.02;;;16.25;;
34573;SDS011;20809;49.594;8.734;2023-02-11T13:39:59;28.88;;;17.38;;
34573;SDS011;20809;49.594;8.734;2023-02-11T13:47:06;28.10;;;18.05;;
34573;SDS011;20809;49.594;8.734;2023-02-11T13:50:23;25.27;;;15.23;;
34573;SDS011;20809;49.594;8.734;2023-02-11T13:53:48;29.70;;;15.90;;
34573;SDS011;20809;49.594;8.734;2023-02-11T14:03:38;34.33;;;18.27;;
34573;SDS011;20809;49.594;8.734;2023-02-11T14:07:38;34.22;;;17.38;;
34573;SDS011;20809;49.594;8.734;2023-02-11T14:14:59;26.50;;;17.00;;
34573;SDS011;20809;49.594;8.734;2023-02-11T14:21:49;31.13;;;17.58;;
34573;SDS011;20809;49.594;8.734;2023-02-11T14:25:02;32.60;;;17.63;;
34573;SDS011;20809;49.594;8.734;2023-02-11T14:28:23;28.13;;;16.08;;
34573;SDS011;20809;49.594;8.734;2023-02-11T14:41:21;30.40;;;18.05;;
34573;SDS011;20809;49.594;8.734;2023-02-11T14:44:35;25.63;;;16.80;;
34573;SDS011;20809;49.594;8.734;2023-02-11T14:47:39;30.55;;;20.05;;
34573;SDS011;20809;49.594;8.734;2023-02-11T14:51:02;33.97;;;18.08;;
34573;SDS011;20809;49.594;8.734;2023-02-11T14:54:18;32.05;;;18.00;;
34573;SDS011;20809;49.594;8.734;2023-02-11T14:57:39;35.33;;;19.63;;
34573;SDS011;20809;49.594;8.734;2023-02-11T15:00:49;31.35;;;17.30;;
34573;SDS011;20809;49.594;8.734;2023-02-11T15:03:56;34.45;;;18.75;;
34573;SDS011;20809;49.594;8.734;2023-02-11T15:07:03;33.67;;;20.27;;
34573;SDS011;20809;49.594;8.734;2023-02-11T15:10:54;37.60;;;22.67;;
34573;SDS011;20809;49.594;8.734;2023-02-11T15:13:46;34.75;;;19.83;;
34573;SDS011;20809;49.594;8.734;2023-02-11T15:16:51;39.47;;;20.77;;
34573;SDS011;20809;49.594;8.734;2023-02-11T15:19:57;33.45;;;19.50;;
34573;SDS011;20809;49.594;8.734;2023-02-11T15:23:03;33.30;;;19.65;;
34573;SDS011;20809;49.594;8.734;2023-02-11T15:26:12;31.40;;;19.27;;
34573;SDS011;20809;49.594;8.734;2023-02-11T15:29:24;34.80;;;19.27;;
34573;SDS011;20809;49.594;8.734;2023-02-11T15:32:49;36.85;;;19.73;;
34573;SDS011;20809;49.594;8.734;2023-02-11T15:36:13;30.85;;;17.90;;
34573;SDS011;20809;49.594;8.734;2023-02-11T15:39:32;30.73;;;16.85;;
34573;SDS011;20809;49.594;8.734;2023-02-11T15:42:51;30.95;;;17.33;;
34573;SDS011;20809;49.594;8.734;2023-02-11T15:46:02;34.83;;;18.90;;
34573;SDS011;20809;49.594;8.734;2023-02-11T15:49:05;30.55;;;18.85;;
34573;SDS011;20809;49.594;8.734;2023-02-11T15:52:21;30.38;;;18.95;;
34573;SDS011;20809;49.594;8.734;2023-02-11T15:55:28;30.90;;;19.00;;
34573;SDS011;20809;49.594;8.734;2023-02-11T15:58:39;31.38;;;18.83;;
34573;SDS011;20809;49.594;8.734;2023-02-11T16:01:44;32.55;;;19.45;;
34573;SDS011;20809;49.594;8.734;2023-02-11T16:04:55;42.00;;;21.55;;
34573;SDS011;20809;49.594;8.734;2023-02-11T16:07:59;33.80;;;20.43;;
34573;SDS011;20809;49.594;8.734;2023-02-11T16:11:25;36.00;;;20.67;;
34573;SDS011;20809;49.594;8.734;2023-02-11T16:14:33;33.28;;;18.67;;
34573;SDS011;20809;49.594;8.734;2023-02-11T16:17:43;30.33;;;18.08;;
34573;SDS011;20809;49.594;8.734;2023-02-11T16:20:48;27.42;;;17.38;;
34573;SDS011;20809;49.594;8.734;2023-02-11T16:23:54;32.35;;;19.15;;
34573;SDS011;20809;49.594;8.734;2023-02-11T16:27:01;34.78;;;20.55;;
34573;SDS011;20809;49.594;8.734;2023-02-11T16:33:31;28.92;;;19.70;;
34573;SDS011;20809;49.594;8.734;2023-02-11T16:36:35;43.97;;;23.75;;
34573;SDS011;20809;49.594;8.734;2023-02-11T16:39:37;41.97;;;22.05;;
34573;SDS011;20809;49.594;8.734;2023-02-11T16:42:41;40.25;;;22.17;;
34573;SDS011;20809;49.594;8.734;2023-02-11T16:45:45;39.28;;;21.45;;
34573;SDS011;20809;49.594;8.734;2023-02-11T16:48:54;34.60;;;19.20;;
34573;SDS011;20809;49.594;8.734;2023-02-11T16:51:58;36.33;;;18.85;;
34573;SDS011;20809;49.594;8.734;2023-02-11T16:55:03;32.90;;;19.73;;
34573;SDS011;20809;49.594;8.734;2023-02-11T16:58:10;35.50;;;19.25;;
34573;SDS011;20809;49.594;8.734;2023-02-11T17:04:19;31.20;;;17.58;;
34573;SDS011;20809;49.594;8.734;2023-02-11T17:07:26;21.95;;;13.48;;
34573;SDS011;20809;49.594;8.734;2023-02-11T17:10:31;39.08;;;21.52;;
34573;SDS011;20809;49.594;8.734;2023-02-11T17:13:33;39.70;;;22.67;;
34573;SDS011;20809;49.594;8.734;2023-02-11T17:16:35;34.75;;;21.55;;
34573;SDS011;20809;49.594;8.734;2023-02-11T17:19:37;44.83;;;23.67;;
34573;SDS011;20809;49.594;8.734;2023-02-11T17:22:42;36.03;;;21.40;;
34573;SDS011;20809;49.594;8.734;2023-02-11T17:25:44;34.50;;;20.55;;
34573;SDS011;20809;49.594;8.734;2023-02-11T17:28:45;41.42;;;20.20;;
34573;SDS011;20809;49.594;8.734;2023-02-11T17:31:47;32.67;;;18.73;;
34573;SDS011;20809;49.594;8.734;2023-02-11T17:34:51;31.73;;;19.48;;
34573;SDS011;20809;49.594;8.734;2023-02-11T17:37:54;32.05;;;19.50;;
34573;SDS011;20809;49.594;8.734;2023-02-11T17:40:57;30.02;;;18.23;;
34573;SDS011;20809;49.594;8.734;2023-02-11T17:44:06;32.92;;;19.25;;
34573;SDS011;20809;49.594;8.734;2023-02-11T17:47:09;28.50;;;17.98;;
34573;SDS011;20809;49.594;8.734;2023-02-11T17:50:11;37.97;;;22.60;;
34573;SDS011;20809;49.594;8.734;2023-02-11T17:53:13;33.08;;;20.23;;
34573;SDS011;20809;49.594;8.734;2023-02-11T17:56:14;36.13;;;20.02;;
34573;SDS011;20809;49.594;8.734;2023-02-11T17:59:16;34.03;;;19.85;;
34573;SDS011;20809;49.594;8.734;2023-02-11T18:02:18;43.20;;;23.40;;
34573;SDS011;20809;49.594;8.734;2023-02-11T18:05:19;36.00;;;21.55;;
34573;SDS011;20809;49.594;8.734;2023-02-11T18:08:20;40.63;;;20.58;;
34573;SDS011;20809;49.594;8.734;2023-02-11T18:11:22;36.08;;;21.33;;
34573;SDS011;20809;49.594;8.734;2023-02-11T18:14:25;38.17;;;23.75;;
34573;SDS011;20809;49.594;8.734;2023-02-11T18:17:26;41.17;;;23.08;;
34573;SDS011;20809;49.594;8.734;2023-02-11T18:20:27;47.95;;;25.33;;
34573;SDS011;20809;49.594;8.734;2023-02-11T18:23:29;38.63;;;23.63;;
34573;SDS011;20809;49.594;8.734;2023-02-11T18:26:31;40.55;;;23.67;;
34573;SDS011;20809;49.594;8.734;2023-02-11T18:29:32;38.33;;;22.98;;
34573;SDS011;20809;49.594;8.734;2023-02-11T18:32:34;42.50;;;23.95;;
34573;SDS011;20809;49.594;8.734;2023-02-11T18:35:37;47.38;;;27.50;;
34573;SDS011;20809;49.594;8.734;2023-02-11T18:38:39;47.83;;;27.17;;
34573;SDS011;20809;49.594;8.734;2023-02-11T18:41:44;59.60;;;33.95;;
34573;SDS011;20809;49.594;8.734;2023-02-11T18:44:46;67.95;;;36.67;;
34573;SDS011;20809;49.594;8.734;2023-02-11T18:47:48;67.20;;;35.17;;
34573;SDS011;20809;49.594;8.734;2023-02-11T18:50:49;58.00;;;32.83;;
34573;SDS011;20809;49.594;8.734;2023-02-11T18:53:51;53.08;;;29.23;;
34573;SDS011;20809;49.594;8.734;2023-02-11T18:56:52;51.88;;;30.65;;
34573;SDS011;20809;49.594;8.734;2023-02-11T18:59:55;70.32;;;33.50;;
34573;SDS011;20809;49.594;8.734;2023-02-11T19:02:57;54.38;;;30.80;;
34573;SDS011;20809;49.594;8.734;2023-02-11T19:05:58;42.35;;;24.63;;
34573;SDS011;20809;49.594;8.734;2023-02-11T19:12:03;38.60;;;24.13;;
34573;SDS011;20809;49.594;8.734;2023-02-11T19:15:07;42.20;;;24.27;;
34573;SDS011;20809;49.594;8.734;2023-02-11T19:18:08;37.45;;;25.75;;
34573;SDS011;20809;49.594;8.734;2023-02-11T19:21:11;42.20;;;29.77;;
34573;SDS011;20809;49.594;8.734;2023-02-11T19:24:12;37.72;;;24.10;;
34573;SDS011;20809;49.594;8.734;2023-02-11T19:27:17;37.10;;;22.00;;
34573;SDS011;20809;49.594;8.734;2023-02-11T19:30:18;37.35;;;22.15;;
34573;SDS011;20809;49.594;8.734;2023-02-11T19:33:19;40.13;;;22.45;;
34573;SDS011;20809;49.594;8.734;2023-02-11T19:36:20;35.47;;;23.52;;
34573;SDS011;20809;49.594;8.734;2023-02-11T19:39:21;37.15;;;23.15;;
34573;SDS011;20809;49.594;8.734;2023-02-11T19:42:23;37.25;;;22.95;;
34573;SDS011;20809;49.594;8.734;2023-02-11T19:45:25;46.72;;;25.02;;
34573;SDS011;20809;49.594;8.734;2023-02-11T19:48:26;41.80;;;24.60;;
34573;SDS011;20809;49.594;8.734;2023-02-11T19:51:27;42.50;;;25.23;;
34573;SDS011;20809;49.594;8.734;2023-02-11T19:54:29;38.90;;;24.88;;
34573;SDS011;20809;49.594;8.734;2023-02-11T19:57:29;42.97;;;26.02;;
34573;SDS011;20809;49.594;8.734;2023-02-11T20:00:30;41.58;;;24.63;;
34573;SDS011;20809;49.594;8.734;2023-02-11T20:03:31;39.17;;;23.50;;
34573;SDS011;20809;49.594;8.734;2023-02-11T20:06:32;42.35;;;23.58;;
34573;SDS011;20809;49.594;8.734;2023-02-11T20:09:34;38.42;;;24.80;;
34573;SDS011;20809;49.594;8.734;2023-02-11T20:12:35;47.30;;;27.20;;
34573;SDS011;20809;49.594;8.734;2023-02-11T20:15:36;37.63;;;23.48;;
34573;SDS011;20809;49.594;8.734;2023-02-11T20:18:37;45.47;;;25.48;;
34573;SDS011;20809;49.594;8.734;2023-02-11T20:21:39;39.80;;;23.60;;
34573;SDS011;20809;49.594;8.734;2023-02-11T20:24:40;40.20;;;23.90;;
34573;SDS011;20809;49.594;8.734;2023-02-11T20:27:41;44.75;;;24.80;;
34573;SDS011;20809;49.594;8.734;2023-02-11T20:30:42;44.85;;;23.95;;
34573;SDS011;20809;49.594;8.734;2023-02-11T20:33:43;42.00;;;23.38;;
34573;SDS011;20809;49.594;8.734;2023-02-11T20:36:44;39.92;;;24.98;;
34573;SDS011;20809;49.594;8.734;2023-02-11T20:39:50;56.60;;;31.58;;
34573;SDS011;20809;49.594;8.734;2023-02-11T20:42:51;49.45;;;29.25;;
34573;SDS011;20809;49.594;8.734;2023-02-11T20:45:52;47.63;;;27.88;;